sensor_id;sensor_type;location;lat;lon;timestamp;P1;durP1;ratioP1;P2;durP2;ratioP2
18076;SDS011;9165;45.714;11.362;2022-10-16T00:00:04;65.27;;;34.60;;
18076;SDS011;9165;45.714;11.362;2022-10-16T00:02:32;64.97;;;36.53;;
18076;SDS011;9165;45.714;11.362;2022-10-16T00:04:59;74.77;;;37.53;;
18076;SDS011;9165;45.714;11.362;2022-10-16T00:07:25;64.83;;;37.63;;
18076;SDS011;9165;45.714;11.362;2022-10-16T00:09:53;74.60;;;39.30;;
18076;SDS011;9165;45.714;11.362;2022-10-16T00:12:19;76.17;;;39.50;;
18076;SDS011;9165;45.714;11.362;2022-10-16T00:14:46;72.60;;;38.03;;
18076;SDS011;9165;45.714;11.362;2022-10-16T00:17:12;69.13;;;37.87;;
18076;SDS011;9165;45.714;11.362;2022-10-16T00:19:40;69.07;;;38.63;;
18076;SDS011;9165;45.714;11.362;2022-10-16T00:22:07;71.47;;;39.70;;
18076;SDS011;9165;45.714;11.362;2022-10-16T00:24:33;71.10;;;40.73;;
18076;SDS011;9165;45.714;11.362;2022-10-16T00:27:00;68.13;;;39.23;;
18076;SDS011;9165;45.714;11.362;2022-10-16T00:29:26;68.93;;;37.33;;
18076;SDS011;9165;45.714;11.362;2022-10-16T00:31:53;69.30;;;37.57;;
18076;SDS011;9165;45.714;11.362;2022-10-16T00:34:19;69.83;;;37.77;;
18076;SDS011;9165;45.714;11.362;2022-10-16T00:36:47;74.43;;;40.60;;
18076;SDS011;9165;45.714;11.362;2022-10-16T00:39:13;65.57;;;36.43;;
18076;SDS011;9165;45.714;11.362;2022-10-16T00:41:41;66.03;;;37.50;;
18076;SDS011;9165;45.714;11.362;2022-10-16T00:46:49;72.47;;;40.53;;
18076;SDS011;9165;45.714;11.362;2022-10-16T00:49:16;69.47;;;37.67;;
18076;SDS011;9165;45.714;11.362;2022-10-16T00:51:44;62.27;;;37.77;;
18076;SDS011;9165;45.714;11.362;2022-10-16T00:54:13;61.60;;;38.40;;
18076;SDS011;9165;45.714;11.362;2022-10-16T00:56:40;74.47;;;39.40;;
18076;SDS011;9165;45.714;11.362;2022-10-16T00:59:09;74.17;;;37.73;;
18076;SDS011;9165;45.714;11.362;2022-10-16T01:01:37;75.57;;;38.67;;
18076;SDS011;9165;45.714;11.362;2022-10-16T01:04:04;74.23;;;38.87;;
18076;SDS011;9165;45.714;11.362;2022-10-16T01:06:32;73.27;;;39.33;;
18076;SDS011;9165;45.714;11.362;2022-10-16T01:09:11;64.20;;;36.33;;
18076;SDS011;9165;45.714;11.362;2022-10-16T01:11:44;62.83;;;36.77;;
18076;SDS011;9165;45.714;11.362;2022-10-16T01:14:11;74.13;;;39.37;;
18076;SDS011;9165;45.714;11.362;2022-10-16T01:16:43;71.90;;;39.17;;
18076;SDS011;9165;45.714;11.362;2022-10-16T01:19:12;74.80;;;37.60;;
18076;SDS011;9165;45.714;11.362;2022-10-16T01:21:40;80.50;;;41.83;;
18076;SDS011;9165;45.714;11.362;2022-10-16T01:24:09;76.50;;;39.10;;
18076;SDS011;9165;45.714;11.362;2022-10-16T01:26:44;67.10;;;37.27;;
18076;SDS011;9165;45.714;11.362;2022-10-16T01:29:16;73.57;;;38.83;;
18076;SDS011;9165;45.714;11.362;2022-10-16T01:31:47;71.63;;;39.30;;
18076;SDS011;9165;45.714;11.362;2022-10-16T01:34:15;72.93;;;38.90;;
18076;SDS011;9165;45.714;11.362;2022-10-16T01:36:45;71.00;;;39.20;;
18076;SDS011;9165;45.714;11.362;2022-10-16T01:39:12;74.63;;;39.57;;
18076;SDS011;9165;45.714;11.362;2022-10-16T01:41:41;75.03;;;38.97;;
18076;SDS011;9165;45.714;11.362;2022-10-16T01:44:10;79.70;;;40.77;;
18076;SDS011;9165;45.714;11.362;2022-10-16T01:46:39;71.77;;;38.73;;
18076;SDS011;9165;45.714;11.362;2022-10-16T01:49:07;81.67;;;40.13;;
18076;SDS011;9165;45.714;11.362;2022-10-16T01:51:35;68.70;;;36.87;;
18076;SDS011;9165;45.714;11.362;2022-10-16T01:54:02;74.30;;;40.10;;
18076;SDS011;9165;45.714;11.362;2022-10-16T01:56:31;83.40;;;39.77;;
18076;SDS011;9165;45.714;11.362;2022-10-16T01:59:00;68.00;;;36.90;;
18076;SDS011;9165;45.714;11.362;2022-10-16T02:01:28;78.03;;;37.90;;
18076;SDS011;9165;45.714;11.362;2022-10-16T02:03:59;73.97;;;40.17;;
18076;SDS011;9165;45.714;11.362;2022-10-16T02:06:28;73.03;;;38.33;;
18076;SDS011;9165;45.714;11.362;2022-10-16T02:08:54;74.03;;;38.40;;
18076;SDS011;9165;45.714;11.362;2022-10-16T02:11:21;70.17;;;37.60;;
18076;SDS011;9165;45.714;11.362;2022-10-16T02:13:48;72.80;;;38.27;;
18076;SDS011;9165;45.714;11.362;2022-10-16T02:16:16;70.37;;;37.07;;
18076;SDS011;9165;45.714;11.362;2022-10-16T02:18:43;76.67;;;37.97;;
18076;SDS011;9165;45.714;11.362;2022-10-16T02:21:13;70.70;;;38.03;;
18076;SDS011;9165;45.714;11.362;2022-10-16T02:23:41;78.60;;;39.13;;
18076;SDS011;9165;45.714;11.362;2022-10-16T02:26:12;75.60;;;38.93;;
18076;SDS011;9165;45.714;11.362;2022-10-16T02:28:40;71.33;;;38.07;;
18076;SDS011;9165;45.714;11.362;2022-10-16T02:31:08;76.67;;;41.20;;
18076;SDS011;9165;45.714;11.362;2022-10-16T02:33:37;70.63;;;38.50;;
18076;SDS011;9165;45.714;11.362;2022-10-16T02:36:04;75.93;;;38.27;;
18076;SDS011;9165;45.714;11.362;2022-10-16T02:38:32;81.13;;;41.73;;
18076;SDS011;9165;45.714;11.362;2022-10-16T02:40:59;81.83;;;41.27;;
18076;SDS011;9165;45.714;11.362;2022-10-16T02:43:25;79.10;;;39.47;;
18076;SDS011;9165;45.714;11.362;2022-10-16T02:45:52;77.70;;;40.00;;
18076;SDS011;9165;45.714;11.362;2022-10-16T02:48:19;83.67;;;39.93;;
18076;SDS011;9165;45.714;11.362;2022-10-16T02:50:45;76.10;;;40.50;;
18076;SDS011;9165;45.714;11.362;2022-10-16T02:53:12;87.27;;;40.73;;
18076;SDS011;9165;45.714;11.362;2022-10-16T02:55:39;71.73;;;38.77;;
18076;SDS011;9165;45.714;11.362;2022-10-16T02:58:06;70.10;;;37.40;;
18076;SDS011;9165;45.714;11.362;2022-10-16T03:00:33;71.17;;;39.30;;
18076;SDS011;9165;45.714;11.362;2022-10-16T03:02:59;78.03;;;39.23;;
18076;SDS011;9165;45.714;11.362;2022-10-16T03:05:26;72.10;;;38.00;;
18076;SDS011;9165;45.714;11.362;2022-10-16T03:07:52;80.30;;;39.20;;
18076;SDS011;9165;45.714;11.362;2022-10-16T03:10:19;76.50;;;39.73;;
18076;SDS011;9165;45.714;11.362;2022-10-16T03:12:46;86.43;;;39.00;;
18076;SDS011;9165;45.714;11.362;2022-10-16T03:15:13;74.83;;;38.57;;
18076;SDS011;9165;45.714;11.362;2022-10-16T03:17:39;76.40;;;38.57;;
18076;SDS011;9165;45.714;11.362;2022-10-16T03:20:06;73.53;;;38.20;;
18076;SDS011;9165;45.714;11.362;2022-10-16T03:22:33;81.37;;;40.37;;
18076;SDS011;9165;45.714;11.362;2022-10-16T03:24:59;79.53;;;40.67;;
18076;SDS011;9165;45.714;11.362;2022-10-16T03:27:26;69.60;;;38.50;;
18076;SDS011;9165;45.714;11.362;2022-10-16T03:29:54;74.67;;;39.17;;
18076;SDS011;9165;45.714;11.362;2022-10-16T03:32:20;76.50;;;38.80;;
18076;SDS011;9165;45.714;11.362;2022-10-16T03:34:47;74.53;;;40.53;;
18076;SDS011;9165;45.714;11.362;2022-10-16T03:37:13;71.70;;;38.97;;
18076;SDS011;9165;45.714;11.362;2022-10-16T03:39:40;72.33;;;37.83;;
18076;SDS011;9165;45.714;11.362;2022-10-16T03:42:06;68.77;;;37.87;;
18076;SDS011;9165;45.714;11.362;2022-10-16T03:44:33;73.73;;;37.27;;
18076;SDS011;9165;45.714;11.362;2022-10-16T03:47:01;71.10;;;37.30;;
18076;SDS011;9165;45.714;11.362;2022-10-16T03:49:27;69.27;;;37.50;;
18076;SDS011;9165;45.714;11.362;2022-10-16T03:51:54;75.63;;;38.17;;
18076;SDS011;9165;45.714;11.362;2022-10-16T03:54:20;67.33;;;35.43;;
18076;SDS011;9165;45.714;11.362;2022-10-16T03:56:48;72.43;;;38.73;;
18076;SDS011;9165;45.714;11.362;2022-10-16T03:59:14;79.80;;;38.53;;
18076;SDS011;9165;45.714;11.362;2022-10-16T04:01:41;73.03;;;39.13;;
18076;SDS011;9165;45.714;11.362;2022-10-16T04:04:09;73.90;;;37.37;;
18076;SDS011;9165;45.714;11.362;2022-10-16T04:06:35;77.87;;;37.17;;
18076;SDS011;9165;45.714;11.362;2022-10-16T04:09:02;79.03;;;37.70;;
18076;SDS011;9165;45.714;11.362;2022-10-16T04:11:29;66.43;;;36.47;;
18076;SDS011;9165;45.714;11.362;2022-10-16T04:13:55;75.43;;;37.70;;
18076;SDS011;9165;45.714;11.362;2022-10-16T04:16:22;74.97;;;36.77;;
18076;SDS011;9165;45.714;11.362;2022-10-16T04:18:48;71.43;;;37.27;;
18076;SDS011;9165;45.714;11.362;2022-10-16T04:21:16;71.47;;;37.77;;
18076;SDS011;9165;45.714;11.362;2022-10-16T04:23:43;69.13;;;38.10;;
18076;SDS011;9165;45.714;11.362;2022-10-16T04:26:09;70.80;;;38.53;;
18076;SDS011;9165;45.714;11.362;2022-10-16T04:28:36;71.03;;;33.90;;
18076;SDS011;9165;45.714;11.362;2022-10-16T04:31:03;67.57;;;35.57;;
18076;SDS011;9165;45.714;11.362;2022-10-16T04:33:30;77.23;;;37.77;;
18076;SDS011;9165;45.714;11.362;2022-10-16T04:35:56;71.90;;;38.80;;
18076;SDS011;9165;45.714;11.362;2022-10-16T04:38:25;68.00;;;37.67;;
18076;SDS011;9165;45.714;11.362;2022-10-16T04:40:51;78.87;;;37.30;;
18076;SDS011;9165;45.714;11.362;2022-10-16T04:43:18;69.87;;;36.33;;
18076;SDS011;9165;45.714;11.362;2022-10-16T04:45:45;69.10;;;36.00;;
18076;SDS011;9165;45.714;11.362;2022-10-16T04:48:11;65.13;;;35.70;;
18076;SDS011;9165;45.714;11.362;2022-10-16T04:50:38;63.60;;;36.43;;
18076;SDS011;9165;45.714;11.362;2022-10-16T04:53:05;68.33;;;35.10;;
18076;SDS011;9165;45.714;11.362;2022-10-16T04:55:33;74.30;;;37.67;;
18076;SDS011;9165;45.714;11.362;2022-10-16T04:57:59;69.77;;;35.73;;
18076;SDS011;9165;45.714;11.362;2022-10-16T05:00:26;71.47;;;37.27;;
18076;SDS011;9165;45.714;11.362;2022-10-16T05:02:53;68.87;;;36.20;;
18076;SDS011;9165;45.714;11.362;2022-10-16T05:05:19;70.63;;;36.27;;
18076;SDS011;9165;45.714;11.362;2022-10-16T05:07:46;78.73;;;34.37;;
18076;SDS011;9165;45.714;11.362;2022-10-16T05:10:12;73.07;;;35.87;;
18076;SDS011;9165;45.714;11.362;2022-10-16T05:12:40;70.20;;;36.13;;
18076;SDS011;9165;45.714;11.362;2022-10-16T05:15:07;72.80;;;37.03;;
18076;SDS011;9165;45.714;11.362;2022-10-16T05:17:34;69.50;;;36.97;;
18076;SDS011;9165;45.714;11.362;2022-10-16T05:20:00;72.10;;;36.23;;
18076;SDS011;9165;45.714;11.362;2022-10-16T05:22:28;69.43;;;35.60;;
18076;SDS011;9165;45.714;11.362;2022-10-16T05:24:54;67.67;;;35.80;;
18076;SDS011;9165;45.714;11.362;2022-10-16T05:27:21;70.10;;;37.33;;
18076;SDS011;9165;45.714;11.362;2022-10-16T05:29:49;72.37;;;38.13;;
18076;SDS011;9165;45.714;11.362;2022-10-16T05:32:15;74.23;;;38.37;;
18076;SDS011;9165;45.714;11.362;2022-10-16T05:34:42;73.60;;;38.83;;
18076;SDS011;9165;45.714;11.362;2022-10-16T05:37:09;65.33;;;35.30;;
18076;SDS011;9165;45.714;11.362;2022-10-16T05:39:36;70.20;;;36.77;;
18076;SDS011;9165;45.714;11.362;2022-10-16T05:42:03;70.70;;;36.47;;
18076;SDS011;9165;45.714;11.362;2022-10-16T05:44:30;72.63;;;37.50;;
18076;SDS011;9165;45.714;11.362;2022-10-16T05:46:58;66.33;;;36.10;;
18076;SDS011;9165;45.714;11.362;2022-10-16T05:49:24;70.20;;;35.17;;
18076;SDS011;9165;45.714;11.362;2022-10-16T05:51:51;73.27;;;37.00;;
18076;SDS011;9165;45.714;11.362;2022-10-16T05:54:17;75.47;;;37.60;;
18076;SDS011;9165;45.714;11.362;2022-10-16T05:56:44;70.93;;;38.47;;
18076;SDS011;9165;45.714;11.362;2022-10-16T05:59:10;75.70;;;38.77;;
18076;SDS011;9165;45.714;11.362;2022-10-16T06:01:37;66.27;;;35.17;;
18076;SDS011;9165;45.714;11.362;2022-10-16T06:04:05;70.17;;;37.30;;
18076;SDS011;9165;45.714;11.362;2022-10-16T06:06:31;76.53;;;38.67;;
18076;SDS011;9165;45.714;11.362;2022-10-16T06:08:58;62.10;;;35.73;;
18076;SDS011;9165;45.714;11.362;2022-10-16T06:11:26;63.83;;;35.73;;
18076;SDS011;9165;45.714;11.362;2022-10-16T06:13:53;68.40;;;34.93;;
18076;SDS011;9165;45.714;11.362;2022-10-16T06:16:21;71.50;;;38.03;;
18076;SDS011;9165;45.714;11.362;2022-10-16T06:18:50;72.10;;;38.27;;
18076;SDS011;9165;45.714;11.362;2022-10-16T06:21:18;79.83;;;38.70;;
18076;SDS011;9165;45.714;11.362;2022-10-16T06:23:45;79.30;;;38.60;;
18076;SDS011;9165;45.714;11.362;2022-10-16T06:26:12;69.93;;;38.43;;
18076;SDS011;9165;45.714;11.362;2022-10-16T06:28:39;69.80;;;35.03;;
18076;SDS011;9165;45.714;11.362;2022-10-16T06:31:07;77.73;;;39.70;;
18076;SDS011;9165;45.714;11.362;2022-10-16T06:33:33;67.87;;;36.83;;
18076;SDS011;9165;45.714;11.362;2022-10-16T06:36:00;64.03;;;35.50;;
18076;SDS011;9165;45.714;11.362;2022-10-16T06:38:28;75.43;;;38.60;;
18076;SDS011;9165;45.714;11.362;2022-10-16T06:40:55;69.67;;;36.57;;
18076;SDS011;9165;45.714;11.362;2022-10-16T06:43:22;68.87;;;37.03;;
18076;SDS011;9165;45.714;11.362;2022-10-16T06:45:50;74.13;;;38.77;;
18076;SDS011;9165;45.714;11.362;2022-10-16T06:48:17;76.43;;;38.83;;
18076;SDS011;9165;45.714;11.362;2022-10-16T06:50:43;70.33;;;37.20;;
18076;SDS011;9165;45.714;11.362;2022-10-16T06:53:10;73.73;;;38.57;;
18076;SDS011;9165;45.714;11.362;2022-10-16T06:55:37;72.63;;;39.63;;
18076;SDS011;9165;45.714;11.362;2022-10-16T06:58:04;70.47;;;38.60;;
18076;SDS011;9165;45.714;11.362;2022-10-16T07:00:30;79.43;;;39.43;;
18076;SDS011;9165;45.714;11.362;2022-10-16T07:02:57;76.87;;;38.87;;
18076;SDS011;9165;45.714;11.362;2022-10-16T07:05:23;72.27;;;40.00;;
18076;SDS011;9165;45.714;11.362;2022-10-16T07:07:50;71.03;;;39.13;;
18076;SDS011;9165;45.714;11.362;2022-10-16T07:10:17;72.30;;;39.10;;
18076;SDS011;9165;45.714;11.362;2022-10-16T07:12:45;82.23;;;39.87;;
18076;SDS011;9165;45.714;11.362;2022-10-16T07:15:11;80.43;;;39.97;;
18076;SDS011;9165;45.714;11.362;2022-10-16T07:17:38;79.60;;;40.37;;
18076;SDS011;9165;45.714;11.362;2022-10-16T07:20:05;76.73;;;40.80;;
18076;SDS011;9165;45.714;11.362;2022-10-16T07:22:32;73.07;;;38.70;;
18076;SDS011;9165;45.714;11.362;2022-10-16T07:24:58;78.10;;;40.83;;
18076;SDS011;9165;45.714;11.362;2022-10-16T07:27:25;87.87;;;42.77;;
18076;SDS011;9165;45.714;11.362;2022-10-16T07:29:53;80.00;;;40.93;;
18076;SDS011;9165;45.714;11.362;2022-10-16T07:32:19;74.77;;;41.90;;
18076;SDS011;9165;45.714;11.362;2022-10-16T07:34:46;77.53;;;42.93;;
18076;SDS011;9165;45.714;11.362;2022-10-16T07:37:12;72.80;;;42.07;;
18076;SDS011;9165;45.714;11.362;2022-10-16T07:39:39;79.57;;;41.17;;
18076;SDS011;9165;45.714;11.362;2022-10-16T07:42:05;73.97;;;40.20;;
18076;SDS011;9165;45.714;11.362;2022-10-16T07:44:32;77.43;;;41.27;;
18076;SDS011;9165;45.714;11.362;2022-10-16T07:47:00;74.90;;;40.57;;
18076;SDS011;9165;45.714;11.362;2022-10-16T07:49:27;78.53;;;38.77;;
18076;SDS011;9165;45.714;11.362;2022-10-16T07:51:54;75.57;;;41.27;;
18076;SDS011;9165;45.714;11.362;2022-10-16T07:54:21;74.50;;;39.17;;
18076;SDS011;9165;45.714;11.362;2022-10-16T07:56:47;79.77;;;39.67;;
18076;SDS011;9165;45.714;11.362;2022-10-16T07:59:14;73.73;;;40.37;;
18076;SDS011;9165;45.714;11.362;2022-10-16T08:01:40;67.03;;;40.03;;
18076;SDS011;9165;45.714;11.362;2022-10-16T08:04:09;79.50;;;41.53;;
18076;SDS011;9165;45.714;11.362;2022-10-16T08:06:36;71.47;;;39.70;;
18076;SDS011;9165;45.714;11.362;2022-10-16T08:09:03;73.33;;;41.60;;
18076;SDS011;9165;45.714;11.362;2022-10-16T08:11:30;74.43;;;39.93;;
18076;SDS011;9165;45.714;11.362;2022-10-16T08:13:56;64.90;;;37.77;;
18076;SDS011;9165;45.714;11.362;2022-10-16T08:16:23;69.87;;;40.63;;
18076;SDS011;9165;45.714;11.362;2022-10-16T08:18:50;77.23;;;43.43;;
18076;SDS011;9165;45.714;11.362;2022-10-16T08:21:18;69.33;;;40.37;;
18076;SDS011;9165;45.714;11.362;2022-10-16T08:23:45;78.23;;;42.07;;
18076;SDS011;9165;45.714;11.362;2022-10-16T08:26:12;71.50;;;43.17;;
18076;SDS011;9165;45.714;11.362;2022-10-16T08:28:38;74.20;;;42.73;;
18076;SDS011;9165;45.714;11.362;2022-10-16T08:31:06;75.13;;;42.60;;
18076;SDS011;9165;45.714;11.362;2022-10-16T08:33:32;67.77;;;41.53;;
18076;SDS011;9165;45.714;11.362;2022-10-16T08:36:00;83.77;;;44.00;;
18076;SDS011;9165;45.714;11.362;2022-10-16T08:38:28;78.73;;;45.30;;
18076;SDS011;9165;45.714;11.362;2022-10-16T08:40:55;74.83;;;44.40;;
18076;SDS011;9165;45.714;11.362;2022-10-16T08:43:35;73.03;;;44.23;;
18076;SDS011;9165;45.714;11.362;2022-10-16T08:46:13;89.90;;;49.63;;
18076;SDS011;9165;45.714;11.362;2022-10-16T08:48:43;66.40;;;41.83;;
18076;SDS011;9165;45.714;11.362;2022-10-16T08:51:12;72.77;;;44.93;;
18076;SDS011;9165;45.714;11.362;2022-10-16T08:53:44;80.23;;;46.37;;
18076;SDS011;9165;45.714;11.362;2022-10-16T08:56:11;83.03;;;46.60;;
18076;SDS011;9165;45.714;11.362;2022-10-16T08:58:38;74.43;;;44.43;;
18076;SDS011;9165;45.714;11.362;2022-10-16T09:01:09;69.73;;;42.97;;
18076;SDS011;9165;45.714;11.362;2022-10-16T09:03:41;74.63;;;45.47;;
18076;SDS011;9165;45.714;11.362;2022-10-16T09:06:14;77.90;;;44.83;;
18076;SDS011;9165;45.714;11.362;2022-10-16T09:08:46;76.93;;;44.53;;
18076;SDS011;9165;45.714;11.362;2022-10-16T09:11:16;76.43;;;45.13;;
18076;SDS011;9165;45.714;11.362;2022-10-16T09:13:48;67.87;;;42.80;;
18076;SDS011;9165;45.714;11.362;2022-10-16T09:16:16;72.83;;;44.77;;
18076;SDS011;9165;45.714;11.362;2022-10-16T09:18:47;72.93;;;43.60;;
18076;SDS011;9165;45.714;11.362;2022-10-16T09:21:16;74.87;;;44.43;;
18076;SDS011;9165;45.714;11.362;2022-10-16T09:23:46;75.60;;;44.67;;
18076;SDS011;9165;45.714;11.362;2022-10-16T09:26:13;73.27;;;44.43;;
18076;SDS011;9165;45.714;11.362;2022-10-16T09:28:41;66.63;;;39.53;;
18076;SDS011;9165;45.714;11.362;2022-10-16T09:31:10;99.50;;;44.27;;
18076;SDS011;9165;45.714;11.362;2022-10-16T09:33:39;66.43;;;41.93;;
18076;SDS011;9165;45.714;11.362;2022-10-16T09:36:08;68.33;;;39.70;;
18076;SDS011;9165;45.714;11.362;2022-10-16T09:38:35;71.33;;;43.07;;
18076;SDS011;9165;45.714;11.362;2022-10-16T09:41:10;70.97;;;41.80;;
18076;SDS011;9165;45.714;11.362;2022-10-16T09:43:40;72.60;;;42.20;;
18076;SDS011;9165;45.714;11.362;2022-10-16T09:46:08;71.73;;;44.10;;
18076;SDS011;9165;45.714;11.362;2022-10-16T09:48:36;67.97;;;42.43;;
18076;SDS011;9165;45.714;11.362;2022-10-16T09:51:04;69.43;;;43.87;;
18076;SDS011;9165;45.714;11.362;2022-10-16T09:53:41;71.73;;;41.80;;
18076;SDS011;9165;45.714;11.362;2022-10-16T09:56:09;63.77;;;41.87;;
18076;SDS011;9165;45.714;11.362;2022-10-16T09:58:35;81.03;;;43.33;;
18076;SDS011;9165;45.714;11.362;2022-10-16T10:01:03;71.67;;;43.67;;
18076;SDS011;9165;45.714;11.362;2022-10-16T10:03:33;66.37;;;40.53;;
18076;SDS011;9165;45.714;11.362;2022-10-16T10:06:01;69.13;;;43.07;;
18076;SDS011;9165;45.714;11.362;2022-10-16T10:08:30;74.23;;;44.93;;
18076;SDS011;9165;45.714;11.362;2022-10-16T10:10:57;71.53;;;41.27;;
18076;SDS011;9165;45.714;11.362;2022-10-16T10:13:25;68.20;;;40.70;;
18076;SDS011;9165;45.714;11.362;2022-10-16T10:15:52;63.70;;;39.77;;
18076;SDS011;9165;45.714;11.362;2022-10-16T10:18:19;60.67;;;39.00;;
18076;SDS011;9165;45.714;11.362;2022-10-16T10:20:56;67.43;;;42.27;;
18076;SDS011;9165;45.714;11.362;2022-10-16T10:23:23;65.47;;;40.07;;
18076;SDS011;9165;45.714;11.362;2022-10-16T10:25:51;66.93;;;41.30;;
18076;SDS011;9165;45.714;11.362;2022-10-16T10:31:13;68.20;;;39.70;;
18076;SDS011;9165;45.714;11.362;2022-10-16T10:33:41;65.60;;;41.50;;
18076;SDS011;9165;45.714;11.362;2022-10-16T10:36:29;67.60;;;41.10;;
18076;SDS011;9165;45.714;11.362;2022-10-16T10:38:57;66.77;;;42.93;;
18076;SDS011;9165;45.714;11.362;2022-10-16T10:41:32;63.20;;;41.67;;
18076;SDS011;9165;45.714;11.362;2022-10-16T10:44:04;65.70;;;40.73;;
18076;SDS011;9165;45.714;11.362;2022-10-16T10:46:35;66.50;;;40.60;;
18076;SDS011;9165;45.714;11.362;2022-10-16T10:51:54;65.03;;;40.53;;
18076;SDS011;9165;45.714;11.362;2022-10-16T10:54:25;59.17;;;40.07;;
18076;SDS011;9165;45.714;11.362;2022-10-16T10:56:56;63.80;;;40.07;;
18076;SDS011;9165;45.714;11.362;2022-10-16T10:59:32;63.33;;;38.63;;
18076;SDS011;9165;45.714;11.362;2022-10-16T11:02:07;66.10;;;38.40;;
18076;SDS011;9165;45.714;11.362;2022-10-16T11:04:41;60.63;;;39.27;;
18076;SDS011;9165;45.714;11.362;2022-10-16T11:07:11;66.57;;;41.13;;
18076;SDS011;9165;45.714;11.362;2022-10-16T11:09:41;58.33;;;39.17;;
18076;SDS011;9165;45.714;11.362;2022-10-16T11:12:11;65.17;;;39.17;;
18076;SDS011;9165;45.714;11.362;2022-10-16T11:14:42;61.60;;;38.37;;
18076;SDS011;9165;45.714;11.362;2022-10-16T11:17:11;64.20;;;40.83;;
18076;SDS011;9165;45.714;11.362;2022-10-16T11:19:40;60.90;;;38.30;;
18076;SDS011;9165;45.714;11.362;2022-10-16T11:22:09;57.73;;;38.87;;
18076;SDS011;9165;45.714;11.362;2022-10-16T11:24:41;63.90;;;39.43;;
18076;SDS011;9165;45.714;11.362;2022-10-16T11:27:09;61.47;;;39.37;;
18076;SDS011;9165;45.714;11.362;2022-10-16T11:29:44;59.90;;;37.93;;
18076;SDS011;9165;45.714;11.362;2022-10-16T11:32:15;53.20;;;36.27;;
18076;SDS011;9165;45.714;11.362;2022-10-16T11:34:44;62.77;;;40.80;;
18076;SDS011;9165;45.714;11.362;2022-10-16T11:37:14;62.70;;;39.13;;
18076;SDS011;9165;45.714;11.362;2022-10-16T11:39:43;58.50;;;38.33;;
18076;SDS011;9165;45.714;11.362;2022-10-16T11:42:10;57.00;;;35.47;;
18076;SDS011;9165;45.714;11.362;2022-10-16T11:44:43;52.30;;;36.20;;
18076;SDS011;9165;45.714;11.362;2022-10-16T11:47:19;61.77;;;36.77;;
18076;SDS011;9165;45.714;11.362;2022-10-16T11:49:49;63.67;;;38.20;;
18076;SDS011;9165;45.714;11.362;2022-10-16T11:52:19;58.53;;;38.27;;
18076;SDS011;9165;45.714;11.362;2022-10-16T11:54:48;60.37;;;37.33;;
18076;SDS011;9165;45.714;11.362;2022-10-16T11:57:17;63.50;;;39.40;;
18076;SDS011;9165;45.714;11.362;2022-10-16T11:59:45;57.67;;;36.67;;
18076;SDS011;9165;45.714;11.362;2022-10-16T12:02:23;62.63;;;39.20;;
18076;SDS011;9165;45.714;11.362;2022-10-16T12:04:53;65.47;;;39.40;;
18076;SDS011;9165;45.714;11.362;2022-10-16T12:07:26;65.37;;;38.83;;
18076;SDS011;9165;45.714;11.362;2022-10-16T12:09:54;60.97;;;39.97;;
18076;SDS011;9165;45.714;11.362;2022-10-16T12:12:24;68.17;;;40.07;;
18076;SDS011;9165;45.714;11.362;2022-10-16T12:14:59;60.40;;;38.00;;
18076;SDS011;9165;45.714;11.362;2022-10-16T12:17:33;61.63;;;40.20;;
18076;SDS011;9165;45.714;11.362;2022-10-16T12:20:01;61.27;;;39.40;;
18076;SDS011;9165;45.714;11.362;2022-10-16T12:22:41;57.47;;;36.60;;
18076;SDS011;9165;45.714;11.362;2022-10-16T12:25:17;68.00;;;40.93;;
18076;SDS011;9165;45.714;11.362;2022-10-16T12:27:45;70.47;;;42.13;;
18076;SDS011;9165;45.714;11.362;2022-10-16T12:30:14;67.70;;;42.33;;
18076;SDS011;9165;45.714;11.362;2022-10-16T12:32:46;68.57;;;39.87;;
18076;SDS011;9165;45.714;11.362;2022-10-16T12:35:19;55.90;;;37.73;;
18076;SDS011;9165;45.714;11.362;2022-10-16T12:37:46;65.97;;;39.33;;
18076;SDS011;9165;45.714;11.362;2022-10-16T12:40:13;71.87;;;41.60;;
18076;SDS011;9165;45.714;11.362;2022-10-16T12:42:41;63.90;;;39.60;;
18076;SDS011;9165;45.714;11.362;2022-10-16T12:45:23;69.20;;;39.67;;
18076;SDS011;9165;45.714;11.362;2022-10-16T12:47:52;70.43;;;41.03;;
18076;SDS011;9165;45.714;11.362;2022-10-16T12:50:23;66.13;;;41.33;;
18076;SDS011;9165;45.714;11.362;2022-10-16T12:52:50;66.90;;;38.67;;
18076;SDS011;9165;45.714;11.362;2022-10-16T12:55:17;64.73;;;39.47;;
18076;SDS011;9165;45.714;11.362;2022-10-16T12:57:45;71.27;;;42.23;;
18076;SDS011;9165;45.714;11.362;2022-10-16T13:00:24;68.80;;;41.40;;
18076;SDS011;9165;45.714;11.362;2022-10-16T13:02:59;63.30;;;39.87;;
18076;SDS011;9165;45.714;11.362;2022-10-16T13:05:32;71.97;;;40.73;;
18076;SDS011;9165;45.714;11.362;2022-10-16T13:08:05;62.40;;;40.33;;
18076;SDS011;9165;45.714;11.362;2022-10-16T13:10:35;71.60;;;42.23;;
18076;SDS011;9165;45.714;11.362;2022-10-16T13:13:07;61.47;;;38.33;;
18076;SDS011;9165;45.714;11.362;2022-10-16T13:15:47;68.77;;;43.37;;
18076;SDS011;9165;45.714;11.362;2022-10-16T13:18:21;70.13;;;42.93;;
18076;SDS011;9165;45.714;11.362;2022-10-16T13:20:56;67.53;;;44.07;;
18076;SDS011;9165;45.714;11.362;2022-10-16T13:23:35;72.20;;;44.00;;
18076;SDS011;9165;45.714;11.362;2022-10-16T13:26:09;65.97;;;41.33;;
18076;SDS011;9165;45.714;11.362;2022-10-16T13:28:38;62.07;;;40.10;;
18076;SDS011;9165;45.714;11.362;2022-10-16T13:31:05;70.87;;;43.43;;
18076;SDS011;9165;45.714;11.362;2022-10-16T13:33:39;76.17;;;45.43;;
18076;SDS011;9165;45.714;11.362;2022-10-16T13:36:17;65.97;;;41.57;;
18076;SDS011;9165;45.714;11.362;2022-10-16T13:38:45;72.13;;;41.23;;
18076;SDS011;9165;45.714;11.362;2022-10-16T13:41:13;70.40;;;42.27;;
18076;SDS011;9165;45.714;11.362;2022-10-16T13:43:41;64.27;;;42.10;;
18076;SDS011;9165;45.714;11.362;2022-10-16T13:46:11;65.17;;;41.40;;
18076;SDS011;9165;45.714;11.362;2022-10-16T13:48:40;65.87;;;41.07;;
18076;SDS011;9165;45.714;11.362;2022-10-16T13:51:10;71.53;;;42.93;;
18076;SDS011;9165;45.714;11.362;2022-10-16T13:53:37;68.00;;;43.03;;
18076;SDS011;9165;45.714;11.362;2022-10-16T13:56:06;67.43;;;40.87;;
18076;SDS011;9165;45.714;11.362;2022-10-16T13:58:32;72.87;;;43.53;;
18076;SDS011;9165;45.714;11.362;2022-10-16T14:00:59;66.27;;;42.57;;
18076;SDS011;9165;45.714;11.362;2022-10-16T14:03:26;65.70;;;42.33;;
18076;SDS011;9165;45.714;11.362;2022-10-16T14:05:55;66.77;;;41.53;;
18076;SDS011;9165;45.714;11.362;2022-10-16T14:08:23;67.50;;;41.03;;
18076;SDS011;9165;45.714;11.362;2022-10-16T14:10:50;68.63;;;41.13;;
18076;SDS011;9165;45.714;11.362;2022-10-16T14:13:19;61.90;;;41.03;;
18076;SDS011;9165;45.714;11.362;2022-10-16T14:15:46;65.40;;;40.90;;
18076;SDS011;9165;45.714;11.362;2022-10-16T14:18:16;56.63;;;36.43;;
18076;SDS011;9165;45.714;11.362;2022-10-16T14:20:44;63.80;;;41.13;;
18076;SDS011;9165;45.714;11.362;2022-10-16T14:23:20;62.43;;;40.37;;
18076;SDS011;9165;45.714;11.362;2022-10-16T14:25:47;70.33;;;40.77;;
18076;SDS011;9165;45.714;11.362;2022-10-16T14:28:15;73.93;;;43.50;;
18076;SDS011;9165;45.714;11.362;2022-10-16T14:30:49;67.77;;;42.50;;
18076;SDS011;9165;45.714;11.362;2022-10-16T14:33:20;68.10;;;40.37;;
18076;SDS011;9165;45.714;11.362;2022-10-16T14:35:57;65.97;;;41.87;;